createdAt,value
2018-06-21T00:00:52.322Z,99.90
2018-06-21T00:03:21.731Z,99.90
2018-06-21T00:05:51.576Z,99.90
2018-06-21T00:08:20.965Z,99.90
2018-06-21T00:10:50.340Z,99.90
2018-06-21T00:13:19.697Z,99.90
2018-06-21T00:15:49.079Z,99.90
2018-06-21T00:18:18.462Z,99.90
2018-06-21T00:20:47.955Z,99.90
2018-06-21T00:23:17.332Z,99.90
2018-06-21T00:25:46.724Z,99.90
2018-06-21T00:28:16.108Z,99.90
2018-06-21T00:30:45.512Z,99.90
2018-06-21T00:33:14.864Z,99.90
2018-06-21T00:35:44.300Z,99.90
2018-06-21T00:38:13.684Z,99.90
2018-06-21T00:40:43.072Z,99.90
2018-06-21T00:43:12.760Z,99.90
2018-06-21T00:45:42.176Z,99.90
2018-06-21T00:48:11.517Z,99.90
2018-06-21T00:50:41.025Z,99.90
2018-06-21T00:53:10.382Z,99.90
2018-06-21T00:55:50.823Z,99.90
2018-06-21T00:58:20.160Z,99.90
2018-06-21T01:03:18.543Z,99.90
2018-06-21T01:08:16.943Z,99.90
2018-06-21T01:10:46.362Z,99.90
2018-06-21T01:13:15.736Z,99.90
2018-06-21T01:15:45.154Z,99.90
2018-06-21T01:18:14.549Z,99.90
2018-06-21T01:20:43.965Z,99.90
2018-06-21T01:23:13.343Z,99.90
2018-06-21T01:25:42.721Z,99.90
2018-06-21T01:28:12.845Z,99.90
2018-06-21T01:30:42.199Z,99.90
2018-06-21T01:33:11.671Z,99.90
2018-06-21T01:35:41.061Z,99.90
2018-06-21T01:38:10.572Z,99.90
2018-06-21T01:40:40.069Z,99.90
2018-06-21T01:45:38.437Z,99.90
2018-06-21T01:48:08.139Z,99.90
2018-06-21T01:50:37.859Z,99.90
2018-06-21T01:53:07.231Z,99.90
2018-06-21T01:55:36.616Z,99.90
2018-06-21T01:58:06.051Z,99.90
2018-06-21T02:00:35.527Z,99.90
2018-06-21T02:03:04.927Z,99.90
2018-06-21T02:05:34.355Z,99.90
2018-06-21T02:08:03.838Z,99.90
2018-06-21T02:10:33.203Z,99.90
2018-06-21T02:13:02.959Z,99.90
2018-06-21T02:15:32.341Z,99.90
2018-06-21T02:18:01.733Z,99.90
2018-06-21T02:20:31.116Z,99.90
2018-06-21T02:23:00.520Z,99.90
2018-06-21T02:27:58.799Z,99.90
2018-06-21T02:30:28.209Z,99.90
2018-06-21T02:32:57.581Z,99.90
2018-06-21T02:35:27.000Z,99.90
2018-06-21T02:37:56.361Z,99.90
2018-06-21T02:40:26.027Z,99.90
2018-06-21T02:42:55.374Z,99.90
2018-06-21T02:45:24.780Z,99.90
2018-06-21T02:47:54.276Z,99.90
2018-06-21T02:50:23.669Z,99.90
2018-06-21T02:52:53.020Z,99.90
2018-06-21T02:55:22.444Z,99.90
2018-06-21T02:57:51.813Z,99.90
2018-06-21T03:00:21.179Z,99.90
2018-06-21T03:02:50.894Z,99.90
2018-06-21T03:05:20.332Z,99.90
2018-06-21T03:07:49.731Z,99.90
2018-06-21T03:10:19.240Z,99.90
2018-06-21T03:12:48.621Z,99.90
2018-06-21T03:15:17.992Z,99.90
2018-06-21T03:17:54.443Z,99.90
2018-06-21T03:20:23.754Z,99.90
2018-06-21T03:22:53.091Z,99.90
2018-06-21T03:25:22.427Z,99.90
2018-06-21T03:27:51.760Z,99.90
2018-06-21T03:30:21.069Z,99.90
2018-06-21T03:32:50.458Z,99.90
2018-06-21T03:35:19.789Z,99.90
2018-06-21T03:37:49.191Z,99.90
2018-06-21T03:42:47.436Z,99.90
2018-06-21T03:45:17.196Z,99.90
2018-06-21T03:47:46.555Z,99.90
2018-06-21T03:50:15.862Z,99.90
2018-06-21T03:52:45.246Z,99.90
2018-06-21T03:55:14.555Z,99.90
2018-06-21T03:57:44.003Z,99.90
2018-06-21T04:02:42.384Z,99.90
2018-06-21T04:05:11.746Z,99.90
2018-06-21T04:07:41.107Z,99.90
2018-06-21T04:10:10.407Z,99.90
2018-06-21T04:12:39.773Z,99.90
2018-06-21T04:15:09.071Z,99.90
2018-06-21T04:17:38.428Z,99.90
2018-06-21T04:20:07.755Z,99.90
2018-06-21T04:22:37.080Z,99.90
2018-06-21T04:25:06.447Z,99.90
2018-06-21T04:27:36.431Z,99.90
2018-06-21T04:30:06.080Z,99.90
2018-06-21T04:32:35.397Z,99.90
2018-06-21T04:35:04.728Z,99.90
2018-06-21T04:37:34.044Z,99.90
2018-06-21T04:40:03.397Z,99.90
2018-06-21T04:42:32.721Z,99.90
2018-06-21T04:47:30.959Z,99.90
2018-06-21T04:50:00.277Z,99.90
2018-06-21T04:52:29.680Z,99.90
2018-06-21T04:54:59.018Z,99.90
2018-06-21T04:57:28.340Z,99.90
2018-06-21T04:59:57.682Z,99.90
2018-06-21T05:04:56.702Z,99.90
2018-06-21T05:07:26.053Z,99.90
2018-06-21T05:09:55.398Z,99.90
2018-06-21T05:12:24.734Z,99.90
2018-06-21T05:14:54.197Z,99.90
2018-06-21T05:17:23.577Z,99.90
2018-06-21T05:19:52.920Z,99.90
2018-06-21T05:22:22.307Z,99.90
2018-06-21T05:24:51.623Z,99.90
2018-06-21T05:27:21.404Z,99.90
2018-06-21T05:29:50.715Z,99.90
2018-06-21T05:32:20.129Z,99.90
2018-06-21T05:34:49.496Z,99.90
2018-06-21T05:39:47.717Z,99.90
2018-06-21T05:42:17.062Z,99.90
2018-06-21T05:44:46.433Z,99.90
2018-06-21T05:47:15.814Z,99.90
2018-06-21T05:49:45.155Z,99.90
2018-06-21T05:52:15.535Z,99.90
2018-06-21T05:54:44.925Z,99.90
2018-06-21T05:57:14.516Z,99.90
2018-06-21T05:59:43.817Z,99.90
2018-06-21T06:02:13.140Z,99.90
2018-06-21T06:04:42.498Z,99.90
2018-06-21T06:07:11.895Z,99.90
2018-06-21T06:09:41.233Z,99.90
2018-06-21T06:12:10.577Z,99.90
2018-06-21T06:14:39.864Z,99.90
2018-06-21T06:17:09.225Z,99.90
2018-06-21T06:19:38.524Z,99.90
2018-06-21T06:22:08.084Z,99.90
2018-06-21T06:24:37.403Z,99.90
2018-06-21T06:27:07.124Z,99.90
2018-06-21T06:29:36.415Z,99.90
2018-06-21T06:32:05.891Z,99.90
2018-06-21T06:34:35.220Z,99.90
2018-06-21T06:37:04.713Z,99.90
2018-06-21T06:39:33.999Z,99.90
2018-06-21T06:42:03.352Z,99.90
2018-06-21T06:44:32.678Z,99.90
2018-06-21T06:47:02.045Z,99.90
2018-06-21T06:49:31.412Z,99.90
2018-06-21T06:52:00.767Z,99.90
2018-06-21T06:54:30.099Z,99.90
2018-06-21T06:56:59.423Z,99.90
2018-06-21T06:59:28.800Z,99.90
2018-06-21T07:01:58.100Z,99.90
2018-06-21T07:04:27.476Z,99.90
2018-06-21T07:06:56.798Z,99.90
2018-06-21T07:09:26.142Z,99.90
2018-06-21T07:11:55.484Z,99.90
2018-06-21T07:14:24.989Z,99.90
2018-06-21T07:16:54.229Z,99.90
2018-06-21T07:19:23.599Z,99.90
2018-06-21T07:21:52.986Z,99.90
2018-06-21T07:24:22.346Z,99.90
2018-06-21T07:26:51.686Z,99.90
2018-06-21T07:29:21.016Z,99.90
2018-06-21T07:31:50.344Z,99.90
2018-06-21T07:34:19.825Z,99.90
2018-06-21T07:36:49.220Z,99.90
2018-06-21T07:39:18.590Z,99.90
2018-06-21T07:41:47.921Z,99.90
2018-06-21T07:44:17.275Z,99.90
2018-06-21T07:46:46.660Z,99.90
2018-06-21T07:49:16.018Z,99.90
2018-06-21T07:51:45.418Z,99.90
2018-06-21T07:54:14.739Z,99.90
2018-06-21T07:56:44.810Z,99.90
2018-06-21T07:59:14.296Z,99.90
2018-06-21T08:01:43.536Z,99.90
2018-06-21T08:04:12.946Z,99.90
2018-06-21T08:06:42.297Z,99.90
2018-06-21T08:09:13.113Z,99.90
2018-06-21T08:11:42.567Z,99.90
2018-06-21T08:14:11.875Z,99.90
2018-06-21T08:16:44.527Z,99.90
2018-06-21T08:19:13.887Z,99.90
2018-06-21T08:21:43.432Z,99.90
2018-06-21T08:24:12.755Z,99.90
2018-06-21T08:26:42.194Z,99.90
2018-06-21T08:29:11.549Z,99.90
2018-06-21T08:31:41.154Z,99.90
2018-06-21T08:39:09.107Z,99.90
2018-06-21T08:41:38.728Z,99.90
2018-06-21T08:44:08.046Z,99.90
2018-06-21T08:46:37.375Z,99.90
2018-06-21T08:51:35.570Z,99.90
2018-06-21T08:54:04.870Z,99.90
2018-06-21T08:56:34.222Z,99.90
2018-06-21T08:59:03.563Z,99.90
2018-06-21T09:01:33.716Z,99.90
2018-06-21T09:04:03.469Z,99.90
2018-06-21T09:09:01.660Z,99.90
2018-06-21T09:11:30.987Z,99.90
2018-06-21T09:14:00.352Z,99.90
2018-06-21T09:16:29.688Z,99.90
2018-06-21T09:18:59.014Z,99.90
2018-06-21T09:21:28.439Z,99.90
2018-06-21T09:23:57.795Z,99.90
2018-06-21T09:26:27.105Z,99.90
2018-06-21T09:28:56.427Z,99.90
2018-06-21T09:31:25.732Z,99.90
2018-06-21T09:33:55.210Z,99.90
2018-06-21T09:36:24.559Z,99.90
2018-06-21T09:38:59.264Z,99.90
2018-06-21T09:41:33.807Z,99.90
2018-06-21T09:44:08.747Z,99.90
2018-06-21T09:46:43.846Z,99.90
2018-06-21T09:49:13.227Z,99.90
2018-06-21T09:51:42.555Z,99.90
2018-06-21T09:54:11.863Z,99.90
2018-06-21T09:56:41.131Z,99.90
2018-06-21T09:59:10.546Z,99.90
2018-06-21T10:01:39.850Z,99.90
2018-06-21T10:04:09.199Z,99.90
2018-06-21T10:06:38.535Z,99.90
2018-06-21T10:09:07.881Z,99.90
2018-06-21T10:11:37.208Z,99.90
2018-06-21T10:14:06.565Z,99.90
2018-06-21T10:16:35.977Z,99.90
2018-06-21T10:19:05.341Z,99.90
2018-06-21T10:21:34.804Z,99.90
2018-06-21T10:24:04.170Z,99.90
2018-06-21T10:26:33.588Z,99.90
2018-06-21T10:29:02.986Z,99.90
2018-06-21T10:31:32.506Z,99.90
2018-06-21T10:34:02.406Z,99.90
2018-06-21T10:36:31.781Z,99.90
2018-06-21T10:39:01.152Z,99.90
2018-06-21T10:41:30.728Z,99.90
2018-06-21T10:44:00.075Z,99.90
2018-06-21T10:46:29.462Z,99.90
2018-06-21T10:48:58.776Z,99.90
2018-06-21T10:51:28.231Z,99.10
2018-06-21T10:53:57.841Z,96.30
2018-06-21T10:56:27.269Z,97.70
2018-06-21T10:58:56.583Z,94.90
2018-06-21T11:01:25.979Z,95.00
2018-06-21T11:03:55.431Z,94.60
2018-06-21T11:08:54.060Z,94.80
2018-06-21T11:11:23.397Z,93.60
2018-06-21T11:13:52.750Z,92.60
2018-06-21T11:16:22.101Z,93.70
2018-06-21T11:18:51.441Z,93.60
2018-06-21T11:21:20.804Z,93.00
2018-06-21T11:23:50.159Z,93.60
2018-06-21T11:26:19.476Z,93.50
2018-06-21T11:28:48.817Z,93.70
2018-06-21T11:31:18.132Z,94.90
2018-06-21T11:33:47.739Z,95.00
2018-06-21T11:36:17.100Z,95.00
2018-06-21T11:38:46.453Z,93.90
2018-06-21T11:41:16.180Z,94.50
2018-06-21T11:43:45.539Z,94.30
2018-06-21T11:46:14.880Z,94.40
2018-06-21T11:48:44.271Z,95.10
2018-06-21T11:51:13.612Z,95.30
2018-06-21T11:53:42.983Z,96.60
2018-06-21T11:56:12.319Z,96.70
2018-06-21T11:58:41.671Z,95.80
2018-06-21T12:01:11.029Z,95.70
2018-06-21T12:03:40.410Z,94.90
2018-06-21T12:06:09.792Z,95.30
2018-06-21T12:08:39.144Z,93.70
2018-06-21T12:11:08.563Z,94.30
2018-06-21T12:13:38.064Z,93.90
2018-06-21T12:16:07.440Z,93.20
2018-06-21T12:18:36.746Z,93.00
2018-06-21T12:21:06.063Z,91.20
2018-06-21T12:23:35.351Z,90.60
2018-06-21T12:26:04.814Z,88.70
2018-06-21T12:28:39.728Z,88.60
2018-06-21T12:31:09.084Z,88.70
2018-06-21T12:33:39.425Z,89.10
2018-06-21T12:36:09.112Z,87.50
2018-06-21T12:38:38.396Z,87.10
2018-06-21T12:43:37.068Z,88.00
2018-06-21T12:46:06.416Z,89.50
2018-06-21T12:48:35.719Z,90.80
2018-06-21T12:51:05.107Z,90.80
2018-06-21T12:53:34.420Z,91.20
2018-06-21T12:56:03.767Z,91.60
2018-06-21T13:01:01.963Z,91.60
2018-06-21T13:03:31.354Z,92.30
2018-06-21T13:06:00.735Z,92.70
2018-06-21T13:08:41.019Z,92.50
2018-06-21T13:14:13.669Z,93.80
2018-06-21T13:16:43.392Z,93.20
2018-06-21T13:19:12.737Z,93.40
2018-06-21T13:21:42.324Z,92.60
2018-06-21T13:26:40.695Z,93.30
2018-06-21T13:29:10.956Z,93.10
2018-06-21T13:31:40.261Z,94.10
2018-06-21T13:34:09.573Z,94.60
2018-06-21T13:36:38.909Z,93.90
2018-06-21T13:39:08.478Z,94.40
2018-06-21T13:41:37.899Z,94.90
2018-06-21T13:44:07.285Z,95.70
2018-06-21T13:46:36.979Z,95.30
2018-06-21T13:49:06.523Z,95.60
2018-06-21T13:51:35.872Z,96.00
2018-06-21T13:54:05.267Z,97.00
2018-06-21T13:56:34.627Z,98.90
2018-06-21T13:59:04.340Z,99.90
2018-06-21T14:01:33.658Z,99.90
2018-06-21T14:06:31.923Z,99.90
2018-06-21T14:09:01.391Z,99.90
2018-06-21T14:11:30.756Z,99.90
2018-06-21T14:14:00.118Z,99.90
2018-06-21T14:16:29.453Z,99.90
2018-06-21T14:18:58.804Z,99.90
2018-06-21T14:21:28.196Z,99.90
2018-06-21T14:23:57.732Z,99.90
2018-06-21T14:26:27.087Z,99.90
2018-06-21T14:28:56.535Z,99.90
2018-06-21T14:31:26.264Z,99.90
2018-06-21T14:33:55.631Z,99.90
2018-06-21T14:36:25.001Z,99.90
2018-06-21T14:38:54.311Z,99.90
2018-06-21T14:41:23.664Z,99.90
2018-06-21T14:43:52.957Z,99.90
2018-06-21T14:46:22.318Z,99.90
2018-06-21T14:48:51.675Z,99.90
2018-06-21T14:51:21.065Z,99.90
2018-06-21T14:53:50.443Z,99.90
2018-06-21T14:56:19.772Z,99.90
2018-06-21T14:58:49.104Z,99.90
2018-06-21T15:01:18.439Z,99.90
2018-06-21T15:03:47.748Z,99.90
2018-06-21T15:06:17.070Z,99.90
2018-06-21T15:11:15.306Z,99.90
2018-06-21T15:13:48.280Z,99.90
2018-06-21T15:16:19.149Z,99.90
2018-06-21T15:18:48.488Z,99.90
2018-06-21T15:21:18.466Z,99.90
2018-06-21T15:23:48.077Z,99.90
2018-06-21T15:26:17.395Z,99.90
2018-06-21T15:28:46.716Z,99.90
2018-06-21T15:31:16.054Z,99.90
2018-06-21T15:33:45.441Z,99.90
2018-06-21T15:36:14.812Z,99.90
2018-06-21T15:38:44.133Z,99.90
2018-06-21T15:41:13.483Z,99.90
2018-06-21T15:43:42.820Z,99.90
2018-06-21T15:46:12.120Z,99.90
2018-06-21T15:48:41.535Z,99.90
2018-06-21T15:51:10.821Z,99.90
2018-06-21T15:53:40.152Z,99.90
2018-06-21T15:56:09.484Z,99.90
2018-06-21T15:58:38.832Z,99.90
2018-06-21T16:01:08.123Z,99.90
2018-06-21T16:03:37.449Z,99.90
2018-06-21T16:06:06.877Z,99.90
2018-06-21T16:08:36.276Z,99.90
2018-06-21T16:11:05.591Z,99.90
2018-06-21T16:13:35.344Z,99.90
2018-06-21T16:16:04.726Z,99.90
2018-06-21T16:18:34.924Z,99.90
2018-06-21T16:21:04.274Z,99.90
2018-06-21T16:23:33.975Z,99.90
2018-06-21T16:26:03.316Z,99.90
2018-06-21T16:28:32.607Z,99.90
2018-06-21T16:31:01.963Z,99.90
2018-06-21T16:33:31.286Z,99.90
2018-06-21T16:36:00.676Z,99.90
2018-06-21T16:38:29.968Z,99.90
2018-06-21T16:40:59.493Z,99.90
2018-06-21T16:43:28.692Z,99.90
2018-06-21T16:45:58.047Z,99.90
2018-06-21T16:48:27.431Z,99.90
2018-06-21T16:50:56.919Z,99.90
2018-06-21T16:53:26.223Z,99.90
2018-06-21T16:55:55.589Z,99.90
2018-06-21T16:58:24.893Z,99.50
2018-06-21T17:00:54.247Z,98.90
2018-06-21T17:03:24.007Z,98.00
2018-06-21T17:05:53.406Z,98.00
2018-06-21T17:08:22.723Z,97.00
2018-06-21T17:10:52.073Z,96.50
2018-06-21T17:13:21.433Z,96.60
2018-06-21T17:15:50.781Z,96.50
2018-06-21T17:18:20.089Z,95.90
2018-06-21T17:20:49.513Z,95.50
2018-06-21T17:23:18.914Z,95.60
2018-06-21T17:25:48.288Z,95.50
2018-06-21T17:28:17.604Z,95.30
2018-06-21T17:30:46.993Z,94.80
2018-06-21T17:33:16.310Z,93.80
2018-06-21T17:35:45.610Z,92.40
2018-06-21T17:38:14.959Z,91.70
2018-06-21T17:40:44.327Z,91.70
2018-06-21T17:43:13.697Z,91.60
2018-06-21T17:45:43.256Z,91.90
2018-06-21T17:48:12.808Z,91.60
2018-06-21T17:50:42.285Z,90.30
2018-06-21T17:53:12.004Z,89.50
2018-06-21T17:55:41.361Z,89.40
2018-06-21T17:58:10.741Z,88.20
2018-06-21T18:00:40.446Z,85.10
2018-06-21T18:03:09.827Z,84.90
2018-06-21T18:05:39.183Z,84.20
2018-06-21T18:08:08.495Z,83.90
2018-06-21T18:10:37.881Z,84.80
2018-06-21T18:13:07.194Z,84.80
2018-06-21T18:15:36.586Z,85.20
2018-06-21T18:18:06.447Z,83.60
2018-06-21T18:20:35.827Z,83.90
2018-06-21T18:23:05.168Z,81.50
2018-06-21T18:25:36.060Z,81.50
2018-06-21T18:28:10.330Z,81.00
2018-06-21T18:30:41.579Z,81.20
2018-06-21T18:33:10.889Z,81.20
2018-06-21T18:35:40.292Z,82.10
2018-06-21T18:38:09.636Z,81.50
2018-06-21T18:40:39.001Z,81.80
2018-06-21T18:45:37.233Z,82.00
2018-06-21T18:48:06.544Z,81.70
2018-06-21T18:50:35.959Z,80.90
2018-06-21T18:53:05.770Z,80.20
2018-06-21T18:55:35.167Z,80.50
2018-06-21T18:58:04.501Z,80.70
2018-06-21T19:00:33.896Z,79.90
2018-06-21T19:03:03.678Z,79.50
2018-06-21T19:05:33.133Z,79.10
2018-06-21T19:08:07.768Z,78.40
2018-06-21T19:10:42.402Z,77.90
2018-06-21T19:13:11.717Z,78.30
2018-06-21T19:15:41.054Z,77.40
2018-06-21T19:18:10.421Z,77.20
2018-06-21T19:20:39.783Z,77.30
2018-06-21T19:23:09.152Z,77.80
2018-06-21T19:25:38.557Z,77.50
2018-06-21T19:30:37.547Z,77.70
2018-06-21T19:38:04.848Z,77.40
2018-06-21T19:40:34.603Z,76.70
2018-06-21T19:43:04.000Z,77.50
2018-06-21T19:45:33.384Z,76.80
2018-06-21T19:48:02.727Z,77.50
2018-06-21T19:50:32.051Z,77.30
2018-06-21T19:53:01.431Z,77.40
2018-06-21T19:55:30.803Z,77.50
2018-06-21T19:58:00.215Z,77.80
2018-06-21T20:00:29.731Z,77.90
2018-06-21T20:02:58.999Z,78.00
2018-06-21T20:05:28.776Z,78.20
2018-06-21T20:07:58.464Z,78.80
2018-06-21T20:10:27.789Z,78.50
2018-06-21T20:12:57.135Z,78.40
2018-06-21T20:15:26.438Z,78.40
2018-06-21T20:17:55.773Z,78.80
2018-06-21T20:20:30.293Z,79.10
2018-06-21T20:22:59.581Z,79.20
2018-06-21T20:25:28.978Z,79.20
2018-06-21T20:30:27.261Z,79.30
2018-06-21T20:32:56.603Z,79.20
2018-06-21T20:35:25.956Z,79.30
2018-06-21T20:37:55.292Z,79.20
2018-06-21T20:40:24.855Z,79.30
2018-06-21T20:42:54.147Z,79.30
2018-06-21T20:45:23.475Z,79.40
2018-06-21T20:47:52.770Z,79.70
2018-06-21T20:50:22.188Z,81.10
2018-06-21T20:52:51.524Z,80.20
2018-06-21T20:55:20.891Z,81.20
2018-06-21T20:57:50.222Z,80.70
2018-06-21T21:00:19.543Z,80.60
2018-06-21T21:02:48.851Z,80.70
2018-06-21T21:07:49.104Z,80.70
2018-06-21T21:10:19.074Z,81.20
2018-06-21T21:12:48.420Z,81.20
2018-06-21T21:15:17.740Z,81.10
2018-06-21T21:17:47.076Z,81.50
2018-06-21T21:20:16.407Z,81.60
2018-06-21T21:22:46.537Z,81.60
2018-06-21T21:25:15.975Z,80.80
2018-06-21T21:27:45.323Z,81.00
2018-06-21T21:30:14.759Z,80.40
2018-06-21T21:32:44.066Z,80.90
2018-06-21T21:35:13.360Z,81.40
2018-06-21T21:37:42.698Z,80.90
2018-06-21T21:40:11.993Z,81.00
2018-06-21T21:42:41.344Z,82.30
2018-06-21T21:45:10.680Z,81.60
2018-06-21T21:47:40.019Z,81.90
2018-06-21T21:50:09.289Z,82.40
2018-06-21T21:52:38.679Z,82.90
2018-06-21T21:55:07.915Z,82.90
2018-06-21T21:57:37.257Z,82.70
2018-06-21T22:00:14.302Z,83.10
2018-06-21T22:02:43.639Z,82.00
2018-06-21T22:05:12.982Z,82.70
2018-06-21T22:07:42.356Z,82.40
2018-06-21T22:10:11.664Z,80.90
2018-06-21T22:12:40.996Z,81.90
2018-06-21T22:17:39.241Z,82.10
2018-06-21T22:20:08.567Z,82.00
2018-06-21T22:22:37.903Z,82.00
2018-06-21T22:25:07.177Z,82.90
2018-06-21T22:27:36.618Z,82.90
2018-06-21T22:30:05.925Z,83.10
2018-06-21T22:32:35.239Z,83.60
2018-06-21T22:35:04.566Z,83.00
2018-06-21T22:37:33.867Z,82.50
2018-06-21T22:40:03.192Z,83.20
2018-06-21T22:42:32.611Z,84.00
2018-06-21T22:45:01.940Z,84.90
2018-06-21T22:47:31.328Z,84.90
2018-06-21T22:50:00.678Z,87.20
2018-06-21T22:52:29.975Z,85.20
2018-06-21T22:54:59.320Z,85.30
2018-06-21T22:57:28.676Z,84.60
2018-06-21T22:59:58.491Z,84.90
2018-06-21T23:02:27.852Z,85.10
2018-06-21T23:04:57.416Z,85.90
2018-06-21T23:07:26.760Z,85.00
2018-06-21T23:09:56.278Z,85.50
2018-06-21T23:12:25.659Z,86.30
2018-06-21T23:14:55.032Z,88.00
2018-06-21T23:17:24.376Z,89.10
2018-06-21T23:19:53.728Z,89.70
2018-06-21T23:22:23.092Z,89.80
2018-06-21T23:24:52.434Z,90.60
2018-06-21T23:27:21.748Z,90.60
2018-06-21T23:29:51.096Z,90.50
2018-06-21T23:34:49.471Z,90.90
2018-06-21T23:37:18.848Z,91.70
2018-06-21T23:39:48.172Z,91.70
2018-06-21T23:42:17.547Z,91.30
2018-06-21T23:44:46.894Z,91.20
2018-06-21T23:47:16.314Z,91.80
2018-06-21T23:49:45.690Z,91.40
2018-06-21T23:54:44.361Z,91.90
2018-06-21T23:57:13.759Z,91.90
2018-06-21T23:59:43.153Z,92.20
